Time;durP1;ratioP1;P1;durP2;ratioP2;P2;SDS_P1;SDS_P2;PMS_P1;PMS_P2;Temp;Humidity;BMP_temperature;BMP_pressure;BME280_temperature;BME280_humidity;BME280_pressure;Samples;Min_cycle;Max_cycle;Signal;HPM_P1;HPM_P2
2021/11/23 00:02:02;;;;;;;8.53;7.30;;;1.30;99.90;;;;;;5053606;28;20456;-64
2021/11/23 00:04:29;;;;;;;8.83;7.93;;;1.20;99.90;;;;;;5053363;28;20452;-64
2021/11/23 00:06:56;;;;;;;9.47;7.20;;;1.20;99.90;;;;;;5052127;28;20551;-65
2021/11/23 00:09:23;;;;;;;8.63;7.70;;;1.30;99.90;;;;;;5053154;28;20448;-65
2021/11/23 00:11:51;;;;;;;9.63;7.40;;;1.30;99.90;;;;;;5052952;28;20492;-64
2021/11/23 00:14:18;;;;;;;8.70;7.63;;;1.20;99.90;;;;;;5053202;28;20531;-64
2021/11/23 00:16:45;;;;;;;10.10;7.20;;;1.30;99.90;;;;;;5051720;28;20448;-62
2021/11/23 00:19:11;;;;;;;8.10;7.07;;;1.30;99.90;;;;;;5053384;28;20503;-64
2021/11/23 00:21:38;;;;;;;9.53;8.00;;;1.30;99.90;;;;;;5052968;28;20459;-64
2021/11/23 00:24:05;;;;;;;9.17;8.27;;;1.20;99.90;;;;;;5053013;28;20472;-64
2021/11/23 00:26:32;;;;;;;8.83;7.93;;;1.10;99.90;;;;;;5051334;28;20452;-61
2021/11/23 00:29:00;;;;;;;10.23;8.17;;;1.00;99.90;;;;;;5053135;28;20540;-64
2021/11/23 00:31:27;;;;;;;8.00;7.10;;;0.90;99.90;;;;;;5052740;28;20480;-64
2021/11/23 00:33:54;;;;;;;8.67;7.77;;;0.90;99.90;;;;;;5052700;28;20929;-65
2021/11/23 00:36:21;;;;;;;9.27;8.00;;;0.90;99.90;;;;;;5051770;28;20501;-65
2021/11/23 00:38:47;;;;;;;9.00;7.03;;;1.00;99.90;;;;;;5051857;28;20975;-64
2021/11/23 00:41:17;;;;;;;10.50;8.80;;;1.00;99.90;;;;;;5052286;28;21088;-65
2021/11/23 00:43:45;;;;;;;11.33;9.20;;;1.10;99.90;;;;;;5052855;28;20442;-64
2021/11/23 00:46:13;;;;;;;8.80;7.40;;;1.20;99.90;;;;;;5051985;28;20547;-64
2021/11/23 00:48:40;;;;;;;10.03;8.40;;;1.20;99.90;;;;;;5052066;28;20471;-64
2021/11/23 00:51:07;;;;;;;14.17;9.47;;;1.30;99.90;;;;;;5052642;28;20448;-65
2021/11/23 00:53:35;;;;;;;8.37;6.90;;;1.30;99.90;;;;;;5052050;28;21003;-64
2021/11/23 00:56:02;;;;;;;11.03;8.00;;;1.30;99.90;;;;;;5052396;28;20968;-64
2021/11/23 00:58:29;;;;;;;9.03;6.70;;;1.20;99.90;;;;;;5050980;28;20468;-63
2021/11/23 01:00:55;;;;;;;7.13;6.10;;;1.20;99.90;;;;;;5052546;28;20444;-64
2021/11/23 01:03:24;;;;;;;9.10;7.67;;;1.20;99.90;;;;;;5052484;28;20455;-63
2021/11/23 01:05:51;;;;;;;9.70;7.40;;;1.10;99.90;;;;;;5052537;28;20452;-64
2021/11/23 01:08:18;;;;;;;10.67;8.17;;;1.00;99.90;;;;;;5050974;28;20837;-65
2021/11/23 01:10:45;;;;;;;10.27;7.90;;;0.90;99.90;;;;;;5052109;28;21337;-62
2021/11/23 01:13:12;;;;;;;9.97;8.97;;;0.80;99.90;;;;;;5052044;28;20486;-63
2021/11/23 01:15:39;;;;;;;8.57;7.13;;;0.70;99.90;;;;;;5052170;28;20958;-64
2021/11/23 01:18:06;;;;;;;11.80;7.97;;;0.60;99.90;;;;;;5050966;28;21027;-64
2021/11/23 01:20:36;;;;;;;11.37;8.40;;;0.50;99.90;;;;;;5052834;28;20448;-62
2021/11/23 01:23:04;;;;;;;10.70;8.33;;;0.40;99.90;;;;;;5053206;28;20455;-61
2021/11/23 01:25:31;;;;;;;12.63;7.90;;;0.30;99.90;;;;;;5054286;28;20964;-64
2021/11/23 01:27:58;;;;;;;10.20;9.00;;;0.30;99.90;;;;;;5051540;28;20475;-63
2021/11/23 01:30:26;;;;;;;11.40;9.10;;;0.30;99.90;;;;;;5051807;28;20440;-63
2021/11/23 01:32:53;;;;;;;12.33;8.20;;;0.30;99.90;;;;;;5051937;28;20584;-64
2021/11/23 01:35:21;;;;;;;11.07;8.47;;;0.60;99.90;;;;;;5051644;28;20448;-62
2021/11/23 01:37:49;;;;;;;10.57;9.00;;;0.80;99.90;;;;;;5049476;28;20468;-62
2021/11/23 01:40:18;;;;;;;10.70;8.23;;;0.80;99.90;;;;;;5051454;28;20932;-63
2021/11/23 01:42:45;;;;;;;9.50;8.30;;;0.70;99.90;;;;;;5051876;28;20448;-61
2021/11/23 01:45:13;;;;;;;11.53;8.77;;;0.70;99.90;;;;;;5051379;28;20454;-63
2021/11/23 01:47:41;;;;;;;11.80;8.27;;;0.90;99.90;;;;;;5050222;28;20487;-62
2021/11/23 01:50:10;;;;;;;10.17;8.13;;;0.90;99.90;;;;;;5050903;28;20461;-63
2021/11/23 01:52:37;;;;;;;8.60;7.40;;;0.90;99.90;;;;;;5051215;28;20480;-64
2021/11/23 01:55:08;;;;;;;10.73;8.97;;;0.80;99.90;;;;;;5051043;28;20455;-63
2021/11/23 01:57:36;;;;;;;9.23;7.60;;;0.70;99.90;;;;;;5049770;28;20468;-64
2021/11/23 02:00:06;;;;;;;9.80;7.70;;;0.50;99.90;;;;;;5050671;28;20453;-64
2021/11/23 02:02:33;;;;;;;11.10;8.73;;;0.40;99.90;;;;;;5050923;28;20448;-60
2021/11/23 02:05:00;;;;;;;9.10;7.53;;;0.30;99.90;;;;;;5050810;28;20440;-61
2021/11/23 02:07:27;;;;;;;10.10;8.70;;;0.20;99.90;;;;;;5049854;28;20472;-62
2021/11/23 02:09:54;;;;;;;10.53;8.83;;;0.20;99.90;;;;;;5050627;28;20450;-63
2021/11/23 02:12:22;;;;;;;10.90;8.57;;;0.20;99.90;;;;;;5050685;28;20443;-63
2021/11/23 02:14:49;;;;;;;14.20;9.40;;;0.10;99.90;;;;;;5050821;28;20447;-64
2021/11/23 02:17:16;;;;;;;10.30;8.47;;;0.10;99.90;;;;;;5049377;28;20472;-60
2021/11/23 02:19:46;;;;;;;12.80;9.60;;;0.00;99.90;;;;;;5050825;28;20448;-61
2021/11/23 02:22:13;;;;;;;13.43;9.50;;;0.00;99.90;;;;;;5049470;28;20816;-63
2021/11/23 02:24:40;;;;;;;13.33;9.00;;;0.10;99.90;;;;;;5049630;28;20451;-64
2021/11/23 02:27:06;;;;;;;12.57;9.37;;;0.20;99.90;;;;;;5048756;28;20475;-63
2021/11/23 02:29:33;;;;;;;12.57;9.33;;;0.10;99.90;;;;;;5050368;28;20466;-64
2021/11/23 02:32:00;;;;;;;12.03;9.27;;;0.10;99.90;;;;;;5050312;28;20448;-63
2021/11/23 02:34:27;;;;;;;13.13;9.13;;;0.20;99.90;;;;;;5050312;28;20488;-64
2021/11/23 02:36:55;;;;;;;12.80;9.93;;;0.20;99.90;;;;;;5048528;28;20475;-64
2021/11/23 02:39:22;;;;;;;11.17;8.70;;;0.30;99.90;;;;;;5049908;28;20441;-64
2021/11/23 02:41:49;;;;;;;11.47;9.73;;;0.20;99.90;;;;;;5049727;28;20536;-64
2021/11/23 02:44:16;;;;;;;11.70;9.63;;;0.20;99.90;;;;;;5049792;28;20884;-63
2021/11/23 02:46:43;;;;;;;12.33;9.17;;;0.10;99.90;;;;;;5048531;28;20485;-64
2021/11/23 02:49:10;;;;;;;12.37;9.20;;;0.20;99.90;;;;;;5050210;28;20482;-63
2021/11/23 02:51:38;;;;;;;10.37;9.20;;;0.10;99.90;;;;;;5050139;28;20539;-64
2021/11/23 02:54:08;;;;;;;12.43;10.40;;;0.00;99.90;;;;;;5050229;28;20885;-64
2021/11/23 02:56:35;;;;;;;12.13;9.07;;;0.10;99.90;;;;;;5046498;28;20448;-62
2021/11/23 02:59:02;;;;;;;13.47;10.03;;;0.10;99.90;;;;;;5049587;28;20462;-64
2021/11/23 03:01:29;;;;;;;13.37;9.70;;;0.00;99.90;;;;;;5049769;28;20452;-63
2021/11/23 03:03:56;;;;;;;13.47;10.43;;;0.10;99.90;;;;;;5049739;28;20449;-63
2021/11/23 03:06:24;;;;;;;13.80;9.63;;;0.00;99.90;;;;;;5048987;28;20527;-62
2021/11/23 03:08:54;;;;;;;15.40;10.93;;;-0.10;99.90;;;;;;5049214;28;20465;-64
2021/11/23 03:11:23;;;;;;;13.10;9.70;;;0.00;99.90;;;;;;5049797;28;20542;-64
2021/11/23 03:13:50;;;;;;;12.10;9.57;;;0.00;99.90;;;;;;5049337;28;20491;-64
2021/11/23 03:16:17;;;;;;;14.03;10.23;;;0.00;99.90;;;;;;5049315;28;20452;-63
2021/11/23 03:18:44;;;;;;;15.43;11.60;;;0.00;99.90;;;;;;5049380;28;20464;-65
2021/11/23 03:21:11;;;;;;;12.27;9.63;;;0.10;99.90;;;;;;5050079;28;20444;-64
2021/11/23 03:23:38;;;;;;;12.33;9.57;;;0.10;99.90;;;;;;5049504;28;20823;-62
2021/11/23 03:26:05;;;;;;;16.10;10.10;;;0.00;99.90;;;;;;5050003;28;20818;-64
2021/11/23 03:28:33;;;;;;;15.63;9.73;;;-0.10;99.90;;;;;;5048732;28;20475;-63
2021/11/23 03:31:00;;;;;;;13.00;10.53;;;-0.10;99.90;;;;;;5050133;28;20488;-62
2021/11/23 03:33:27;;;;;;;15.47;11.07;;;-0.10;99.90;;;;;;5049331;28;21139;-63
2021/11/23 03:35:54;;;;;;;15.30;11.43;;;-0.20;99.90;;;;;;5049748;28;20460;-64
2021/11/23 03:38:21;;;;;;;12.53;9.40;;;-0.30;99.90;;;;;;5049355;28;20464;-63
2021/11/23 03:40:48;;;;;;;14.63;10.43;;;-0.30;99.90;;;;;;5049539;28;20458;-63
2021/11/23 03:43:16;;;;;;;13.77;10.73;;;-0.30;99.90;;;;;;5049919;28;20452;-62
2021/11/23 03:45:44;;;;;;;14.00;11.10;;;-0.40;99.90;;;;;;5049915;28;20446;-62
2021/11/23 03:48:11;;;;;;;14.23;10.90;;;-0.50;99.90;;;;;;5048524;28;20494;-63
2021/11/23 03:50:38;;;;;;;15.43;10.87;;;-0.50;99.90;;;;;;5049300;28;20451;-62
2021/11/23 03:53:05;;;;;;;14.10;11.07;;;-0.50;99.90;;;;;;5049159;28;20487;-63
2021/11/23 03:55:34;;;;;;;13.30;10.10;;;-0.40;99.90;;;;;;5049499;28;20458;-62
2021/11/23 03:58:02;;;;;;;14.93;10.90;;;-0.50;99.90;;;;;;5048251;28;20559;-61
2021/11/23 04:00:29;;;;;;;13.67;10.47;;;-0.40;99.90;;;;;;5050723;28;20798;-63
2021/11/23 04:02:57;;;;;;;15.60;10.70;;;-0.40;99.90;;;;;;5053205;28;20974;-62
2021/11/23 04:05:24;;;;;;;16.43;10.97;;;-0.40;99.90;;;;;;5053034;28;20535;-61
2021/11/23 04:07:52;;;;;;;15.20;11.57;;;-0.40;99.90;;;;;;5052061;28;20478;-62
2021/11/23 04:10:19;;;;;;;17.40;10.50;;;-0.50;99.90;;;;;;5052974;28;20831;-63
2021/11/23 04:12:47;;;;;;;20.80;11.80;;;-0.40;99.90;;;;;;5053030;28;20452;-61
2021/11/23 04:15:14;;;;;;;14.53;10.63;;;-0.40;99.90;;;;;;5053197;28;20817;-63
2021/11/23 04:17:41;;;;;;;13.83;10.77;;;-0.40;99.90;;;;;;5051974;28;20506;-60
2021/11/23 04:20:10;;;;;;;18.07;12.70;;;-0.40;99.90;;;;;;5052988;28;20838;-63
2021/11/23 04:22:38;;;;;;;15.50;11.50;;;-0.50;99.90;;;;;;5052714;28;20535;-60
2021/11/23 04:25:07;;;;;;;16.53;10.63;;;-0.50;99.90;;;;;;5053262;28;20444;-63
2021/11/23 04:27:34;;;;;;;15.23;11.10;;;-0.60;99.90;;;;;;5051318;28;20465;-62
2021/11/23 04:30:00;;;;;;;14.97;10.50;;;-0.60;99.90;;;;;;5052938;28;20452;-63
2021/11/23 04:32:29;;;;;;;16.43;10.90;;;-0.60;99.90;;;;;;5052521;28;20441;-63
2021/11/23 04:34:56;;;;;;;16.40;11.17;;;-0.70;99.90;;;;;;5052433;28;20479;-63
2021/11/23 04:37:24;;;;;;;16.80;12.70;;;-0.70;99.90;;;;;;5051113;28;20464;-63
2021/11/23 04:39:52;;;;;;;17.87;11.80;;;-0.70;99.90;;;;;;5052706;28;20814;-62
2021/11/23 04:42:19;;;;;;;16.20;10.77;;;-0.70;99.90;;;;;;5052733;28;20457;-62
2021/11/23 04:44:46;;;;;;;15.00;10.80;;;-0.70;99.90;;;;;;5052787;28;20443;-63
2021/11/23 04:47:12;;;;;;;15.30;12.13;;;-0.70;99.90;;;;;;5051123;28;20820;-63
2021/11/23 04:49:39;;;;;;;18.10;13.10;;;-0.70;99.90;;;;;;5052572;28;20972;-61
2021/11/23 04:52:07;;;;;;;17.43;12.83;;;-0.70;99.90;;;;;;5051986;28;21021;-63
2021/11/23 04:54:35;;;;;;;19.63;12.57;;;-0.80;99.90;;;;;;5052081;28;20575;-61
2021/11/23 04:57:02;;;;;;;18.03;12.10;;;-0.80;99.90;;;;;;5050879;28;21012;-63
2021/11/23 04:59:28;;;;;;;17.20;12.57;;;-0.90;99.90;;;;;;5052151;28;20455;-65
2021/11/23 05:01:55;;;;;;;16.50;13.37;;;-0.90;99.90;;;;;;5052128;28;21213;-63
2021/11/23 05:04:22;;;;;;;15.70;11.10;;;-0.90;99.90;;;;;;5052100;28;20538;-63
2021/11/23 05:06:49;;;;;;;16.70;11.87;;;-0.90;99.90;;;;;;5051086;28;20444;-63
2021/11/23 05:09:16;;;;;;;21.80;12.20;;;-0.90;99.90;;;;;;5052091;28;20463;-62
2021/11/23 05:11:47;;;;;;;19.67;12.33;;;-0.80;99.90;;;;;;5051996;28;20864;-63
2021/11/23 05:14:15;;;;;;;17.57;13.37;;;-0.80;99.90;;;;;;5051769;28;20485;-63
2021/11/23 05:16:42;;;;;;;16.43;12.30;;;-0.70;99.90;;;;;;5051216;28;20644;-62
2021/11/23 05:19:09;;;;;;;15.70;13.33;;;-0.80;99.90;;;;;;5051871;28;20837;-66
2021/11/23 05:21:36;;;;;;;14.63;10.97;;;-0.90;99.90;;;;;;5052079;28;20448;-59
2021/11/23 05:24:03;;;;;;;18.83;12.83;;;-0.90;99.90;;;;;;5051756;28;20445;-61
2021/11/23 05:26:30;;;;;;;16.37;12.37;;;-0.90;99.90;;;;;;5051298;28;20667;-63
2021/11/23 05:28:58;;;;;;;18.17;12.07;;;-1.00;99.90;;;;;;5051595;28;20454;-63
2021/11/23 05:31:25;;;;;;;19.17;13.20;;;-1.00;99.90;;;;;;5052331;28;20449;-63
2021/11/23 05:33:52;;;;;;;15.93;12.33;;;-1.00;99.90;;;;;;5051415;28;20484;-59
2021/11/23 05:36:19;;;;;;;15.47;12.27;;;-1.10;99.90;;;;;;5051317;28;20452;-58
2021/11/23 05:38:46;;;;;;;18.03;13.20;;;-1.10;99.90;;;;;;5051574;28;20464;-61
2021/11/23 05:41:12;;;;;;;16.30;13.07;;;-1.20;99.90;;;;;;5052393;28;20446;-60
2021/11/23 05:43:39;;;;;;;22.80;14.20;;;-1.10;99.90;;;;;;5052802;28;20437;-62
2021/11/23 05:46:08;;;;;;;18.17;12.87;;;-1.10;99.90;;;;;;5048907;28;20484;-63
2021/11/23 05:48:35;;;;;;;18.90;13.60;;;-1.10;99.90;;;;;;5049961;28;20473;-63
2021/11/23 05:51:04;;;;;;;18.70;13.17;;;-1.10;99.90;;;;;;5050586;28;20540;-62
2021/11/23 05:53:31;;;;;;;18.00;13.03;;;-1.10;99.90;;;;;;5050702;28;20849;-63
2021/11/23 05:55:58;;;;;;;18.97;13.00;;;-1.20;99.90;;;;;;5050314;28;20480;-62
2021/11/23 05:58:25;;;;;;;18.90;13.53;;;-1.20;99.90;;;;;;5049491;28;20477;-62
2021/11/23 06:00:52;;;;;;;18.17;13.20;;;-1.20;99.90;;;;;;5050265;28;20962;-62
2021/11/23 06:03:20;;;;;;;21.17;15.13;;;-1.10;99.90;;;;;;5050765;28;20448;-63
2021/11/23 06:05:48;;;;;;;18.93;13.70;;;-1.00;99.90;;;;;;5049483;28;20544;-64
2021/11/23 06:08:14;;;;;;;21.90;16.53;;;-1.00;99.90;;;;;;5047448;28;20476;-61
2021/11/23 06:10:42;;;;;;;20.57;15.20;;;-0.90;99.90;;;;;;5047540;28;20466;-62
2021/11/23 06:13:10;;;;;;;23.23;14.40;;;-0.80;99.90;;;;;;5047439;28;20451;-58
2021/11/23 06:15:38;;;;;;;19.10;14.27;;;-0.80;99.90;;;;;;5047052;28;20523;-60
2021/11/23 06:18:05;;;;;;;21.23;14.03;;;-0.90;99.90;;;;;;5047685;28;20473;-62
2021/11/23 06:20:33;;;;;;;19.00;14.23;;;-0.90;99.90;;;;;;5049664;28;20461;-58
2021/11/23 06:23:02;;;;;;;17.83;13.50;;;-0.80;99.90;;;;;;5049565;28;20448;-61
2021/11/23 06:25:30;;;;;;;16.83;13.97;;;-0.90;99.90;;;;;;5050447;28;20466;-61
2021/11/23 06:27:57;;;;;;;17.33;12.43;;;-0.80;99.90;;;;;;5048758;28;20895;-61
2021/11/23 06:30:24;;;;;;;19.23;13.77;;;-0.90;99.90;;;;;;5049395;28;20886;-62
2021/11/23 06:32:51;;;;;;;17.20;13.10;;;-0.90;99.90;;;;;;5047500;28;20487;-60
2021/11/23 06:35:18;;;;;;;18.43;12.53;;;-1.00;99.90;;;;;;5049383;28;20483;-62
2021/11/23 06:37:46;;;;;;;18.97;12.27;;;-1.00;99.90;;;;;;5048645;28;20471;-52
2021/11/23 06:40:13;;;;;;;16.50;13.00;;;-1.00;99.90;;;;;;5049136;28;20440;-61
2021/11/23 06:42:40;;;;;;;19.87;12.50;;;-1.00;99.90;;;;;;5047677;28;20467;-60
2021/11/23 06:45:08;;;;;;;18.13;13.60;;;-1.00;99.90;;;;;;5042066;28;20463;-61
2021/11/23 06:47:36;;;;;;;17.77;11.70;;;-1.00;99.90;;;;;;5039033;28;20225;-61
2021/11/23 06:50:04;;;;;;;17.67;13.30;;;-1.10;99.90;;;;;;5038557;28;20539;-62
2021/11/23 06:52:31;;;;;;;18.03;12.07;;;-1.10;99.90;;;;;;5036983;28;20448;-63
2021/11/23 06:54:59;;;;;;;16.07;12.47;;;-1.10;99.90;;;;;;5040316;28;20489;-62
2021/11/23 06:57:26;;;;;;;23.27;14.67;;;-1.20;99.90;;;;;;5037759;28;20834;-61
2021/11/23 06:59:53;;;;;;;26.30;14.40;;;-1.30;99.90;;;;;;5046746;28;20455;-61
2021/11/23 07:02:19;;;;;;;19.20;13.57;;;-1.30;99.90;;;;;;5049433;28;20938;-62
2021/11/23 07:04:46;;;;;;;18.17;13.10;;;-1.30;99.90;;;;;;5049925;28;20523;-61
2021/11/23 07:07:13;;;;;;;21.43;15.17;;;-1.20;99.90;;;;;;5048474;28;21057;-64
2021/11/23 07:09:42;;;;;;;21.07;14.10;;;-1.10;99.90;;;;;;5050067;28;20447;-62
2021/11/23 07:12:11;;;;;;;20.90;14.60;;;-1.10;99.90;;;;;;5049903;28;20526;-63
2021/11/23 07:14:39;;;;;;;20.80;14.60;;;-1.00;99.90;;;;;;5049479;28;20494;-62
2021/11/23 07:17:06;;;;;;;18.63;14.40;;;-0.90;99.90;;;;;;5048145;28;20978;-62
2021/11/23 07:19:33;;;;;;;24.90;16.70;;;-0.90;99.90;;;;;;5049560;28;20441;-64
2021/11/23 07:22:00;;;;;;;22.30;15.97;;;-0.80;99.90;;;;;;5050306;28;20883;-58
2021/11/23 07:24:27;;;;;;;23.10;15.80;;;-0.80;99.90;;;;;;5042053;28;20824;-53
2021/11/23 07:26:55;;;;;;;19.57;15.47;;;-0.80;99.90;;;;;;5038689;28;21058;-60
2021/11/23 07:29:23;;;;;;;20.10;15.30;;;-0.70;99.90;;;;;;5037822;28;20452;-61
2021/11/23 07:31:50;;;;;;;19.90;14.60;;;-0.70;99.90;;;;;;5037693;28;20484;-64
2021/11/23 07:34:17;;;;;;;19.10;14.03;;;-0.60;99.90;;;;;;5037641;28;20473;-57
2021/11/23 07:36:44;;;;;;;19.00;14.23;;;-0.60;99.90;;;;;;5045817;28;20456;-62
2021/11/23 07:39:11;;;;;;;17.30;14.23;;;-0.40;99.90;;;;;;5042874;28;20455;-60
2021/11/23 07:41:38;;;;;;;17.27;14.03;;;-0.40;99.90;;;;;;5041825;28;20822;-60
2021/11/23 07:44:07;;;;;;;18.83;13.43;;;-0.40;99.90;;;;;;5044867;28;20458;-62
2021/11/23 07:46:35;;;;;;;19.63;13.67;;;-0.30;99.90;;;;;;5048987;28;21398;-60
2021/11/23 07:49:03;;;;;;;19.60;14.80;;;-0.20;99.90;;;;;;5050796;28;20448;-63
2021/11/23 07:51:30;;;;;;;21.63;13.93;;;-0.20;99.90;;;;;;5049332;28;20532;-62
2021/11/23 07:53:56;;;;;;;22.07;15.27;;;-0.10;99.90;;;;;;5043556;28;20937;-63
2021/11/23 07:56:23;;;;;;;20.43;14.03;;;0.00;99.90;;;;;;5041425;28;20449;-57
2021/11/23 07:58:50;;;;;;;19.47;14.90;;;0.10;99.90;;;;;;5044996;28;20462;-62
2021/11/23 08:01:17;;;;;;;17.90;14.43;;;0.30;99.90;;;;;;5044547;28;20820;-58
2021/11/23 08:03:45;;;;;;;20.53;14.87;;;0.40;99.90;;;;;;5051040;28;20429;-60
2021/11/23 08:06:12;;;;;;;16.33;13.13;;;0.40;99.90;;;;;;5048368;28;20446;-63
2021/11/23 08:08:40;;;;;;;18.90;13.53;;;0.60;99.90;;;;;;5039100;28;20456;-63
2021/11/23 08:11:07;;;;;;;18.50;13.67;;;0.60;99.90;;;;;;5044119;28;20463;-62
2021/11/23 08:13:34;;;;;;;19.77;14.90;;;0.80;99.90;;;;;;5050381;28;20471;-60
2021/11/23 08:16:03;;;;;;;18.90;14.87;;;0.90;99.90;;;;;;5046607;28;21082;-63
2021/11/23 08:18:31;;;;;;;21.23;15.57;;;1.00;99.90;;;;;;5048292;28;20456;-61
2021/11/23 08:21:00;;;;;;;20.80;15.40;;;1.00;99.90;;;;;;5045477;28;20445;-63
2021/11/23 08:23:28;;;;;;;18.27;13.20;;;1.10;99.90;;;;;;5050711;28;20536;-63
2021/11/23 08:25:55;;;;;;;17.77;12.40;;;1.20;99.90;;;;;;5049198;28;20858;-61
2021/11/23 08:28:23;;;;;;;17.27;13.00;;;1.20;99.90;;;;;;5048223;28;20464;-63
2021/11/23 08:30:51;;;;;;;18.70;14.17;;;1.30;99.90;;;;;;5050241;28;20432;-62
2021/11/23 08:33:18;;;;;;;15.73;11.97;;;1.30;99.90;;;;;;5048692;28;20441;-61
2021/11/23 08:35:45;;;;;;;16.93;13.47;;;1.40;99.90;;;;;;5048612;28;20471;-61
2021/11/23 08:38:13;;;;;;;17.77;13.40;;;1.40;99.90;;;;;;5039004;28;20464;-63
2021/11/23 08:40:40;;;;;;;16.38;13.02;;;1.40;99.90;;;;;;5041089;28;20442;-63
2021/11/23 08:43:08;;;;;;;18.40;13.57;;;1.40;99.90;;;;;;5042475;28;20212;-63
2021/11/23 08:45:35;;;;;;;15.73;12.70;;;1.50;99.90;;;;;;5039897;28;20434;-64
2021/11/23 08:48:02;;;;;;;18.77;12.97;;;1.50;99.90;;;;;;5044936;28;20464;-61
2021/11/23 08:50:30;;;;;;;16.10;11.80;;;1.50;99.90;;;;;;5051871;28;20436;-60
2021/11/23 08:52:58;;;;;;;16.80;12.47;;;1.60;99.90;;;;;;5048461;28;20879;-62
2021/11/23 08:55:26;;;;;;;16.73;12.60;;;1.60;99.90;;;;;;5044108;28;20571;-61
2021/11/23 08:57:54;;;;;;;17.70;13.77;;;1.70;99.90;;;;;;5044430;28;20471;-64
2021/11/23 09:00:22;;;;;;;13.27;11.77;;;1.80;99.90;;;;;;5044327;28;20537;-61
2021/11/23 09:02:51;;;;;;;15.50;12.43;;;1.90;99.90;;;;;;5032286;28;20460;-61
2021/11/23 09:05:20;;;;;;;15.73;13.10;;;1.90;99.90;;;;;;5031396;28;20457;-62
2021/11/23 09:07:48;;;;;;;16.23;12.70;;;1.90;99.90;;;;;;5029905;28;20504;-59
2021/11/23 09:10:19;;;;;;;15.90;12.30;;;1.90;99.90;;;;;;5031613;28;20489;-62
2021/11/23 09:12:49;;;;;;;14.87;12.20;;;1.90;99.90;;;;;;5032036;28;20457;-63
2021/11/23 09:15:17;;;;;;;16.17;12.70;;;1.90;99.90;;;;;;5031999;28;20930;-60
2021/11/23 09:17:45;;;;;;;15.07;11.87;;;2.00;99.90;;;;;;5031066;28;20480;-61
2021/11/23 09:20:13;;;;;;;15.13;12.40;;;2.10;99.90;;;;;;5031803;28;20818;-62
2021/11/23 09:22:40;;;;;;;14.47;12.10;;;2.10;99.90;;;;;;5032052;28;20433;-58
2021/11/23 09:25:11;;;;;;;18.20;12.07;;;2.10;99.90;;;;;;5031805;28;20473;-61
2021/11/23 09:27:38;;;;;;;15.57;12.43;;;2.20;99.90;;;;;;5030718;28;20497;-61
2021/11/23 09:30:09;;;;;;;18.00;12.40;;;2.30;99.90;;;;;;5032244;28;20473;-65
2021/11/23 09:32:36;;;;;;;18.63;12.80;;;2.50;99.90;;;;;;5032451;28;20527;-64
2021/11/23 09:35:04;;;;;;;12.57;11.27;;;2.60;99.90;;;;;;5031718;28;20542;-63
2021/11/23 09:37:31;;;;;;;13.20;11.47;;;2.80;99.90;;;;;;5030426;28;20567;-60
2021/11/23 09:39:58;;;;;;;13.47;10.70;;;2.90;99.90;;;;;;5031758;28;20472;-62
2021/11/23 09:42:25;;;;;;;14.73;12.10;;;3.20;99.90;;;;;;5031727;28;20539;-64
2021/11/23 09:44:52;;;;;;;11.90;10.27;;;3.70;99.90;;;;;;5031228;28;21026;-62
2021/11/23 09:47:21;;;;;;;12.23;10.53;;;3.80;99.90;;;;;;5030267;28;20475;-61
2021/11/23 09:49:48;;;;;;;12.47;10.60;;;3.70;99.90;;;;;;5031850;28;20828;-63
2021/11/23 09:52:15;;;;;;;15.70;10.63;;;3.60;99.90;;;;;;5031711;28;20469;-60
2021/11/23 09:54:42;;;;;;;13.13;11.77;;;3.60;99.90;;;;;;5031653;28;20507;-64
2021/11/23 09:57:09;;;;;;;15.13;10.63;;;3.60;99.90;;;;;;5030467;28;20571;-63
2021/11/23 09:59:35;;;;;;;12.53;10.27;;;3.70;99.90;;;;;;5031001;28;20613;-62
2021/11/23 10:02:03;;;;;;;13.30;10.53;;;3.70;99.90;;;;;;5032580;28;20472;-62
2021/11/23 10:04:33;;;;;;;12.37;10.07;;;4.00;99.90;;;;;;5032200;28;20437;-63
2021/11/23 10:07:02;;;;;;;11.53;9.13;;;4.60;99.90;;;;;;5031267;28;20461;-61
2021/11/23 10:09:35;;;;;;;10.10;9.10;;;5.50;99.90;;;;;;5030894;28;20437;-61
2021/11/23 10:12:17;;;;;;;9.20;8.30;;;6.40;99.90;;;;;;5030540;28;20461;-62
2021/11/23 10:15:09;;;;;;;8.87;7.50;;;7.30;99.90;;;;;;5030916;28;20457;-65
2021/11/23 10:17:37;;;;;;;9.70;8.70;;;8.20;99.90;;;;;;5029526;28;20987;-64
2021/11/23 10:20:23;;;;;;;8.50;7.57;;;8.70;99.90;;;;;;5030764;28;20533;-62
2021/11/23 10:22:50;;;;;;;9.60;8.40;;;9.20;99.90;;;;;;5031034;28;20536;-61
2021/11/23 10:25:17;;;;;;;9.23;8.33;;;9.80;99.90;;;;;;5030646;28;20465;-63
2021/11/23 10:27:45;;;;;;;9.30;8.40;;;10.40;99.90;;;;;;5029297;28;20503;-60
2021/11/23 10:30:12;;;;;;;8.47;7.60;;;10.80;99.90;;;;;;5030519;28;20949;-62
2021/11/23 10:32:45;;;;;;;8.90;8.00;;;10.90;99.90;;;;;;5030040;28;20528;-60
2021/11/23 10:35:15;;;;;;;11.40;8.27;;;10.80;99.90;;;;;;5030437;28;20226;-62
2021/11/23 10:37:42;;;;;;;8.70;7.80;;;11.10;99.90;;;;;;5028960;28;20536;-61
2021/11/23 10:40:16;;;;;;;8.80;7.90;;;11.10;99.90;;;;;;5029737;28;20748;-61
2021/11/23 10:42:44;;;;;;;8.73;7.93;;;10.70;99.90;;;;;;5030163;28;20465;-63
2021/11/23 10:45:12;;;;;;;8.70;7.83;;;10.30;99.90;;;;;;5030543;28;20445;-60
2021/11/23 10:47:41;;;;;;;9.13;8.33;;;9.40;99.90;;;;;;5029245;28;20458;-63
2021/11/23 10:50:11;;;;;;;11.60;8.07;;;8.60;99.90;;;;;;5029852;28;20472;-60
2021/11/23 10:52:41;;;;;;;10.13;9.13;;;7.60;99.90;;;;;;5030168;28;20481;-63
2021/11/23 10:55:25;;;;;;;9.70;8.73;;;6.80;99.90;;;;;;5029782;28;20524;-63
2021/11/23 10:57:54;;;;;;;10.67;9.57;;;6.50;99.90;;;;;;5028890;28;20504;-60
2021/11/23 11:00:22;;;;;;;8.40;7.60;;;6.20;99.90;;;;;;5029969;28;20513;-62
2021/11/23 11:02:50;;;;;;;9.90;8.50;;;6.10;99.90;;;;;;5029869;28;20460;-62
2021/11/23 11:05:17;;;;;;;9.10;7.77;;;6.10;99.90;;;;;;5029631;28;20533;-62
2021/11/23 11:07:47;;;;;;;9.53;8.53;;;5.90;99.90;;;;;;5028539;28;20739;-63
2021/11/23 11:10:15;;;;;;;10.33;8.90;;;5.80;99.90;;;;;;5029855;28;20540;-61
2021/11/23 11:12:42;;;;;;;10.30;9.27;;;5.80;99.90;;;;;;5029754;28;20477;-62
2021/11/23 11:15:13;;;;;;;10.37;9.37;;;5.60;99.90;;;;;;5029849;28;20486;-63
2021/11/23 11:17:45;;;;;;;9.87;8.87;;;5.70;99.90;;;;;;5028423;28;20852;-62
2021/11/23 11:20:13;;;;;;;13.50;9.13;;;5.70;99.90;;;;;;5030513;28;20430;-63
2021/11/23 11:22:53;;;;;;;9.83;7.83;;;5.70;99.90;;;;;;5029910;28;20815;-64
2021/11/23 11:25:23;;;;;;;9.60;8.63;;;5.60;99.90;;;;;;5029621;28;20978;-63
2021/11/23 11:27:51;;;;;;;10.47;8.13;;;5.60;99.90;;;;;;5028274;28;20473;-63
2021/11/23 11:30:25;;;;;;;8.67;7.63;;;5.60;99.90;;;;;;5029387;28;20434;-63
2021/11/23 11:32:54;;;;;;;8.50;7.57;;;5.60;99.90;;;;;;5029407;28;20452;-63
2021/11/23 11:35:26;;;;;;;10.93;7.30;;;5.60;99.90;;;;;;5029340;28;20519;-64
2021/11/23 11:37:59;;;;;;;8.80;7.27;;;5.70;99.90;;;;;;5028113;28;20473;-60
2021/11/23 11:40:27;;;;;;;9.53;8.53;;;5.70;99.90;;;;;;5029642;28;20519;-62
2021/11/23 11:42:59;;;;;;;8.83;7.93;;;5.80;99.90;;;;;;5029403;28;20507;-63
2021/11/23 11:45:39;;;;;;;9.50;7.77;;;5.90;99.90;;;;;;5029414;28;20433;-62
2021/11/23 11:48:42;;;;;;;8.30;7.40;;;5.90;99.90;;;;;;5028012;28;20489;-64
2021/11/23 11:51:17;;;;;;;9.73;7.33;;;6.00;99.90;;;;;;5029393;28;20809;-61
2021/11/23 11:53:47;;;;;;;8.43;7.37;;;6.10;99.90;;;;;;5029567;28;20459;-63
2021/11/23 11:56:17;;;;;;;9.67;8.50;;;6.00;99.90;;;;;;5028392;28;21034;-57
2021/11/23 11:58:53;;;;;;;8.00;7.20;;;5.90;99.90;;;;;;5028743;28;20465;-63
2021/11/23 12:01:35;;;;;;;12.27;8.30;;;5.90;99.90;;;;;;5029033;28;20919;-61
2021/11/23 12:04:10;;;;;;;8.13;6.93;;;5.90;99.90;;;;;;5028881;28;20437;-62
2021/11/23 12:07:00;;;;;;;9.13;7.70;;;5.90;99.90;;;;;;5027840;28;20527;-65
2021/11/23 12:09:33;;;;;;;9.17;7.07;;;5.90;99.90;;;;;;5029297;28;20480;-64
2021/11/23 12:12:21;;;;;;;7.73;6.47;;;6.00;99.90;;;;;;5029130;28;20553;-63
2021/11/23 12:14:59;;;;;;;7.20;6.40;;;5.90;99.90;;;;;;5029179;28;20868;-61
2021/11/23 12:17:36;;;;;;;7.97;7.17;;;5.90;99.90;;;;;;5028124;28;20512;-63
2021/11/23 12:20:08;;;;;;;8.50;6.30;;;5.90;99.90;;;;;;5029238;28;20552;-64
2021/11/23 12:22:41;;;;;;;7.50;6.53;;;5.80;99.90;;;;;;5032141;28;20438;-61
2021/11/23 12:25:12;;;;;;;7.63;6.50;;;5.80;99.90;;;;;;5032606;28;20940;-63
2021/11/23 12:27:44;;;;;;;7.27;5.90;;;5.80;99.90;;;;;;5031427;28;20911;-62
2021/11/23 12:30:12;;;;;;;7.33;6.37;;;5.80;99.90;;;;;;5032934;28;20884;-63
2021/11/23 12:32:39;;;;;;;6.97;6.27;;;6.00;99.90;;;;;;5032966;28;20619;-62
2021/11/23 12:35:09;;;;;;;6.93;6.23;;;6.00;99.90;;;;;;5032688;28;20495;-62
2021/11/23 12:37:38;;;;;;;6.90;5.70;;;6.00;99.90;;;;;;5031228;28;20484;-62
2021/11/23 12:40:19;;;;;;;6.17;5.53;;;6.00;99.90;;;;;;5032179;28;20446;-63
2021/11/23 12:42:52;;;;;;;5.77;4.83;;;6.10;99.90;;;;;;5032721;28;20540;-59
2021/11/23 12:45:19;;;;;;;5.67;4.83;;;6.10;99.90;;;;;;5032131;28;20434;-61
2021/11/23 12:47:49;;;;;;;6.87;4.73;;;6.10;99.90;;;;;;5030696;28;20461;-57